Time;durP1;ratioP1;P1;durP2;ratioP2;P2;SDS_P1;SDS_P2;PMS_P1;PMS_P2;Temp;Humidity;BMP_temperature;BMP_pressure;BME280_temperature;BME280_humidity;BME280_pressure;Samples;Min_cycle;Max_cycle;Signal;HPM_P1;HPM_P2
2020/12/29 00:00:32;;;;;;;7.93;5.30;;;6.90;99.90;;;;;;5073788;28;20948;-75
2020/12/29 00:02:59;;;;;;;5.30;4.27;;;6.90;99.90;;;;;;5074903;28;20226;-75
2020/12/29 00:05:25;;;;;;;7.87;4.10;;;6.90;99.90;;;;;;5071211;28;20347;-76
2020/12/29 00:07:54;;;;;;;7.10;4.87;;;6.90;99.90;;;;;;5072515;28;20207;-76
2020/12/29 00:10:21;;;;;;;6.93;4.80;;;6.90;99.90;;;;;;5071251;28;20216;-76
2020/12/29 00:12:48;;;;;;;8.57;5.03;;;6.90;99.90;;;;;;5073351;28;20275;-74
2020/12/29 00:15:16;;;;;;;6.50;4.70;;;7.00;99.90;;;;;;5072531;28;20211;-75
2020/12/29 00:17:43;;;;;;;6.20;4.70;;;7.00;99.90;;;;;;5073048;28;20863;-75
2020/12/29 00:20:10;;;;;;;8.93;4.97;;;7.00;99.90;;;;;;5073605;28;20562;-75
2020/12/29 00:22:37;;;;;;;6.97;4.50;;;7.00;99.90;;;;;;5067929;28;20591;-76
2020/12/29 00:25:04;;;;;;;7.73;5.07;;;7.10;99.90;;;;;;5071056;28;20323;-78
2020/12/29 00:27:33;;;;;;;6.83;4.97;;;7.10;99.90;;;;;;5074769;28;20247;-76
2020/12/29 00:29:59;;;;;;;7.33;5.00;;;7.10;99.90;;;;;;5074823;28;20208;-74
2020/12/29 00:32:26;;;;;;;6.77;4.87;;;7.10;99.90;;;;;;5070893;28;20300;-74
2020/12/29 00:34:53;;;;;;;7.20;5.10;;;7.20;99.90;;;;;;5071615;28;20654;-74
2020/12/29 00:37:19;;;;;;;7.90;5.63;;;7.20;99.90;;;;;;5073605;28;20209;-75
2020/12/29 00:39:47;;;;;;;7.53;4.90;;;7.30;99.90;;;;;;5074165;28;20678;-76
2020/12/29 00:42:13;;;;;;;7.43;5.13;;;7.20;99.90;;;;;;5068890;28;20213;-76
2020/12/29 00:44:40;;;;;;;7.20;4.67;;;7.20;99.90;;;;;;5066636;28;20262;-75
2020/12/29 00:47:06;;;;;;;9.10;5.20;;;7.20;99.90;;;;;;5072160;28;20252;-75
2020/12/29 00:49:37;;;;;;;8.77;5.27;;;7.30;99.90;;;;;;5070813;28;20210;-75
2020/12/29 00:52:04;;;;;;;7.13;5.00;;;7.20;99.90;;;;;;5073874;28;20266;-75
2020/12/29 00:54:31;;;;;;;7.97;5.30;;;7.20;99.90;;;;;;5073677;28;20354;-76
2020/12/29 00:56:58;;;;;;;6.67;4.93;;;7.30;99.90;;;;;;5072678;28;20213;-75
2020/12/29 00:59:24;;;;;;;7.50;5.17;;;7.30;99.90;;;;;;5068101;28;20337;-75
2020/12/29 01:01:54;;;;;;;8.47;4.90;;;7.20;99.90;;;;;;5072873;28;20241;-75
2020/12/29 01:04:21;;;;;;;7.10;4.77;;;7.20;99.90;;;;;;5068927;28;20306;-75
2020/12/29 01:06:48;;;;;;;8.60;5.40;;;7.20;99.90;;;;;;5073330;28;20627;-75
2020/12/29 01:09:15;;;;;;;7.67;4.87;;;7.20;99.90;;;;;;5072559;28;20237;-75
2020/12/29 01:11:42;;;;;;;8.73;5.00;;;7.20;99.90;;;;;;5071746;28;20239;-74
2020/12/29 01:14:08;;;;;;;7.13;5.13;;;7.20;99.90;;;;;;5073124;28;20257;-74
2020/12/29 01:16:35;;;;;;;8.67;4.97;;;7.20;99.90;;;;;;5069617;28;20254;-74
2020/12/29 01:19:02;;;;;;;6.80;5.03;;;7.20;99.90;;;;;;5072193;28;20246;-74
2020/12/29 01:21:28;;;;;;;7.30;5.10;;;7.20;99.90;;;;;;5072171;28;20586;-74
2020/12/29 01:23:55;;;;;;;7.83;5.17;;;7.20;99.90;;;;;;5070863;28;20734;-75
2020/12/29 01:26:22;;;;;;;7.03;4.67;;;7.20;99.90;;;;;;5072033;28;20562;-75
2020/12/29 01:28:49;;;;;;;6.70;4.77;;;7.20;99.90;;;;;;5072501;28;20204;-76
2020/12/29 01:31:15;;;;;;;7.17;4.70;;;7.20;99.90;;;;;;5073010;28;20296;-75
2020/12/29 01:33:42;;;;;;;7.00;5.00;;;7.20;99.90;;;;;;5072672;28;20636;-76
2020/12/29 01:36:09;;;;;;;6.63;4.70;;;7.30;99.90;;;;;;5069388;28;20217;-77
2020/12/29 01:38:36;;;;;;;6.37;4.40;;;7.30;99.90;;;;;;5069993;28;20218;-76
2020/12/29 01:41:03;;;;;;;6.63;4.70;;;7.30;99.90;;;;;;5073068;28;20324;-77
2020/12/29 01:43:30;;;;;;;7.27;5.07;;;7.30;99.90;;;;;;5076001;28;20691;-77
2020/12/29 01:45:57;;;;;;;6.27;4.37;;;7.30;99.90;;;;;;5070817;28;20201;-77
2020/12/29 01:48:25;;;;;;;6.63;4.20;;;7.30;99.90;;;;;;5073951;28;20241;-76
2020/12/29 01:50:52;;;;;;;7.20;4.07;;;7.30;99.90;;;;;;5072951;28;20273;-77
2020/12/29 01:53:18;;;;;;;6.40;4.43;;;7.40;99.90;;;;;;5073160;28;20797;-75
2020/12/29 01:55:44;;;;;;;7.60;4.80;;;7.30;99.90;;;;;;5074195;28;20252;-76
2020/12/29 01:58:13;;;;;;;5.30;4.00;;;7.30;99.90;;;;;;5071185;28;20569;-76
2020/12/29 02:00:39;;;;;;;5.77;4.60;;;7.30;99.90;;;;;;5073427;28;20209;-76
2020/12/29 02:03:10;;;;;;;6.60;4.80;;;7.30;99.90;;;;;;5076194;28;20650;-77
2020/12/29 02:05:38;;;;;;;7.43;4.57;;;7.40;99.90;;;;;;5070686;28;20208;-75
2020/12/29 02:08:05;;;;;;;6.70;4.37;;;7.40;99.90;;;;;;5075279;28;20328;-75
2020/12/29 02:10:31;;;;;;;5.37;4.67;;;7.40;99.90;;;;;;5073260;28;20212;-75
2020/12/29 02:12:58;;;;;;;6.93;4.90;;;7.40;99.90;;;;;;5075927;28;20257;-75
2020/12/29 02:15:25;;;;;;;6.33;4.60;;;7.30;99.90;;;;;;5074965;28;20226;-75
2020/12/29 02:17:51;;;;;;;6.13;4.17;;;7.40;99.90;;;;;;5073119;28;20573;-77
2020/12/29 02:20:18;;;;;;;5.13;4.17;;;7.40;99.90;;;;;;5074090;28;20608;-76
2020/12/29 02:22:45;;;;;;;8.27;4.67;;;7.40;99.90;;;;;;5073444;28;20680;-75
2020/12/29 02:25:12;;;;;;;8.20;4.83;;;7.40;99.90;;;;;;5075304;28;20244;-76
2020/12/29 02:27:45;;;;;;;6.33;4.47;;;7.30;99.90;;;;;;5073991;28;20197;-75
2020/12/29 02:30:12;;;;;;;6.03;4.53;;;7.40;99.90;;;;;;5075098;28;20280;-75
2020/12/29 02:32:38;;;;;;;7.33;4.80;;;7.30;99.90;;;;;;5074578;28;20201;-76
2020/12/29 02:35:06;;;;;;;6.20;4.93;;;7.40;99.90;;;;;;5071414;28;20683;-76
2020/12/29 02:37:33;;;;;;;6.07;4.13;;;7.40;99.90;;;;;;5074089;28;20662;-77
2020/12/29 02:40:00;;;;;;;7.93;4.40;;;7.40;99.90;;;;;;5076882;28;20670;-76
2020/12/29 02:42:27;;;;;;;7.17;4.63;;;7.30;99.90;;;;;;5073901;28;20314;-75
2020/12/29 02:44:53;;;;;;;5.20;4.23;;;7.30;99.90;;;;;;5070987;28;20296;-76
2020/12/29 02:47:20;;;;;;;5.07;4.07;;;7.30;99.90;;;;;;5072690;28;20213;-76
2020/12/29 02:49:46;;;;;;;6.63;4.30;;;7.40;99.90;;;;;;5071204;28;20580;-75
2020/12/29 02:52:13;;;;;;;4.97;3.90;;;7.30;99.90;;;;;;5072217;28;20709;-75
2020/12/29 02:54:39;;;;;;;5.93;3.93;;;7.30;99.90;;;;;;5075137;28;20205;-74
2020/12/29 02:57:06;;;;;;;8.47;4.90;;;7.40;99.90;;;;;;5073480;28;20746;-75
2020/12/29 02:59:33;;;;;;;6.77;4.50;;;7.30;99.90;;;;;;5072035;28;20320;-74
2020/12/29 03:01:59;;;;;;;5.37;4.17;;;7.30;99.90;;;;;;5073429;28;20368;-76
2020/12/29 03:04:26;;;;;;;5.67;4.23;;;7.40;99.90;;;;;;5071374;28;20281;-75
2020/12/29 03:06:52;;;;;;;7.63;3.80;;;7.30;99.90;;;;;;5072883;28;20292;-75
2020/12/29 03:09:19;;;;;;;4.93;3.87;;;7.30;99.90;;;;;;5072845;28;20720;-75
2020/12/29 03:11:46;;;;;;;4.30;3.40;;;7.30;99.90;;;;;;5071962;28;20227;-76
2020/12/29 03:14:14;;;;;;;5.67;3.73;;;7.40;99.90;;;;;;5073455;28;20216;-76
2020/12/29 03:16:40;;;;;;;5.70;3.90;;;7.40;99.90;;;;;;5071348;28;20228;-77
2020/12/29 03:19:07;;;;;;;5.27;3.83;;;7.40;99.90;;;;;;5073000;28;20229;-76
2020/12/29 03:21:33;;;;;;;6.90;4.53;;;7.40;99.90;;;;;;5073759;28;20612;-75
2020/12/29 03:23:59;;;;;;;5.17;4.00;;;7.30;99.90;;;;;;5073966;28;20201;-76
2020/12/29 03:26:26;;;;;;;5.93;4.13;;;7.40;99.90;;;;;;5073100;28;20674;-76
2020/12/29 03:28:53;;;;;;;6.37;4.23;;;7.30;99.90;;;;;;5072800;28;20205;-76
2020/12/29 03:31:20;;;;;;;5.57;4.20;;;7.40;99.90;;;;;;5072423;28;20291;-75
2020/12/29 03:33:47;;;;;;;6.27;3.90;;;7.40;99.90;;;;;;5072846;28;20208;-75
2020/12/29 03:36:13;;;;;;;4.70;3.77;;;7.30;99.90;;;;;;5073320;28;20227;-76
2020/12/29 03:38:39;;;;;;;5.80;4.17;;;7.40;99.90;;;;;;5072484;28;20693;-75
2020/12/29 03:41:06;;;;;;;5.83;4.10;;;7.40;99.90;;;;;;5069277;28;20281;-76
2020/12/29 03:43:33;;;;;;;6.93;4.27;;;7.40;99.90;;;;;;5070419;28;20205;-75
2020/12/29 03:45:59;;;;;;;5.03;3.83;;;7.40;99.90;;;;;;5073157;28;20796;-75
2020/12/29 03:48:26;;;;;;;6.50;4.33;;;7.40;99.90;;;;;;5071455;28;20292;-76
2020/12/29 03:50:55;;;;;;;6.03;3.70;;;7.40;99.90;;;;;;5072057;28;20284;-75
2020/12/29 03:53:22;;;;;;;5.93;3.70;;;7.40;99.90;;;;;;5071910;28;20723;-75
2020/12/29 03:55:48;;;;;;;7.13;3.47;;;7.40;99.90;;;;;;5072315;28;20205;-75
2020/12/29 03:58:14;;;;;;;5.13;3.80;;;7.50;99.90;;;;;;5069319;28;20322;-76
2020/12/29 04:00:41;;;;;;;5.20;4.33;;;7.50;99.90;;;;;;5070673;28;20205;-76
2020/12/29 04:03:07;;;;;;;5.67;3.90;;;7.50;99.90;;;;;;5071964;28;20338;-76
2020/12/29 04:05:35;;;;;;;5.87;3.80;;;7.50;99.90;;;;;;5072540;28;20662;-76
2020/12/29 04:08:01;;;;;;;7.20;4.20;;;7.50;99.90;;;;;;5073610;28;20244;-76
2020/12/29 04:10:28;;;;;;;5.20;3.60;;;7.50;99.90;;;;;;5071088;28;20650;-75
2020/12/29 04:12:54;;;;;;;6.03;3.70;;;7.50;99.90;;;;;;5069490;28;20316;-75
2020/12/29 04:15:20;;;;;;;6.17;4.50;;;7.50;99.90;;;;;;5074692;28;20206;-75
2020/12/29 04:17:47;;;;;;;8.77;3.90;;;7.50;99.90;;;;;;5071868;28;20309;-74
2020/12/29 04:20:14;;;;;;;5.70;4.10;;;7.50;99.90;;;;;;5072003;28;20654;-76
2020/12/29 04:22:42;;;;;;;5.73;4.43;;;7.50;99.90;;;;;;5072587;28;20201;-75
2020/12/29 04:25:10;;;;;;;5.37;4.07;;;7.50;99.90;;;;;;5072458;28;20666;-77
2020/12/29 04:27:39;;;;;;;7.47;4.63;;;7.50;99.90;;;;;;5067032;28;20237;-76
2020/12/29 04:30:06;;;;;;;6.40;4.17;;;7.50;99.90;;;;;;5072888;28;20232;-77
2020/12/29 04:32:33;;;;;;;5.37;3.93;;;7.50;99.90;;;;;;5074963;28;20220;-76
2020/12/29 04:34:59;;;;;;;6.40;4.70;;;7.50;99.90;;;;;;5069222;28;20204;-77
2020/12/29 04:37:26;;;;;;;5.80;4.60;;;7.50;99.90;;;;;;5073477;28;20292;-77
2020/12/29 04:39:53;;;;;;;5.83;4.17;;;7.50;99.90;;;;;;5067922;28;20233;-76
2020/12/29 04:42:21;;;;;;;7.27;4.67;;;7.40;99.90;;;;;;5069976;28;20813;-76
2020/12/29 04:44:48;;;;;;;9.87;4.70;;;7.40;99.90;;;;;;5071336;28;20208;-75
2020/12/29 04:47:15;;;;;;;5.73;4.10;;;7.40;99.90;;;;;;5071275;28;20684;-76
2020/12/29 04:49:41;;;;;;;7.80;4.87;;;7.40;99.90;;;;;;5072193;28;20281;-78
2020/12/29 04:52:09;;;;;;;7.07;4.70;;;7.50;99.90;;;;;;5072017;28;20206;-76
2020/12/29 04:54:36;;;;;;;7.67;4.83;;;7.50;99.90;;;;;;5074146;28;20376;-76
2020/12/29 04:57:05;;;;;;;6.90;4.40;;;7.50;99.90;;;;;;5072151;28;20209;-76
2020/12/29 04:59:33;;;;;;;6.10;4.40;;;7.50;99.90;;;;;;5071940;28;20231;-75
2020/12/29 05:02:00;;;;;;;6.83;4.40;;;7.50;99.90;;;;;;5072141;28;20201;-76
2020/12/29 05:04:28;;;;;;;6.60;4.23;;;7.50;99.90;;;;;;5072157;28;20216;-76
2020/12/29 05:06:55;;;;;;;7.80;4.50;;;7.50;99.90;;;;;;5068444;28;20212;-74
2020/12/29 05:09:23;;;;;;;5.60;4.33;;;7.50;99.90;;;;;;5072118;28;20702;-76
2020/12/29 05:11:50;;;;;;;5.80;3.93;;;7.60;99.90;;;;;;5071568;28;20304;-75
2020/12/29 05:14:18;;;;;;;5.80;4.53;;;7.60;99.90;;;;;;5070001;28;20291;-75
2020/12/29 05:16:44;;;;;;;7.67;4.70;;;7.60;99.90;;;;;;5071119;28;20205;-75
2020/12/29 05:19:13;;;;;;;7.67;4.33;;;7.60;99.90;;;;;;5072035;28;20221;-75
2020/12/29 05:21:41;;;;;;;6.03;4.33;;;7.70;99.90;;;;;;5069642;28;20213;-75
2020/12/29 05:24:12;;;;;;;7.70;4.43;;;7.70;99.90;;;;;;5069517;28;20245;-76
2020/12/29 05:26:38;;;;;;;8.70;4.67;;;7.70;99.90;;;;;;5068825;28;20205;-75
2020/12/29 05:29:06;;;;;;;6.50;4.30;;;7.70;99.90;;;;;;5069754;28;20220;-76
2020/12/29 05:31:34;;;;;;;6.27;4.23;;;7.70;99.90;;;;;;5074542;28;20236;-76
2020/12/29 05:34:04;;;;;;;6.20;4.60;;;7.70;99.90;;;;;;5076323;28;20711;-75
2020/12/29 05:36:36;;;;;;;8.10;4.30;;;7.80;99.90;;;;;;5075460;28;20569;-76
2020/12/29 05:39:09;;;;;;;6.17;4.37;;;7.80;99.90;;;;;;5071236;28;20608;-76
2020/12/29 05:41:38;;;;;;;6.57;4.67;;;7.80;99.90;;;;;;5074706;28;20623;-74
2020/12/29 05:44:06;;;;;;;7.77;4.67;;;7.80;99.90;;;;;;5073630;28;20292;-76
2020/12/29 05:46:34;;;;;;;6.20;4.70;;;7.80;99.90;;;;;;5076332;28;20296;-75
2020/12/29 05:49:01;;;;;;;6.90;4.57;;;7.80;99.90;;;;;;5075099;28;20238;-75
2020/12/29 05:51:27;;;;;;;7.83;4.63;;;7.80;99.90;;;;;;5075335;28;20306;-76
2020/12/29 05:54:04;;;;;;;6.23;4.40;;;7.80;99.90;;;;;;5075319;28;20567;-76
2020/12/29 05:56:32;;;;;;;6.30;4.70;;;7.90;99.90;;;;;;5075208;28;20204;-75
2020/12/29 05:59:00;;;;;;;7.23;4.10;;;7.90;99.90;;;;;;5071766;28;20230;-75
2020/12/29 06:01:38;;;;;;;6.10;4.10;;;7.90;99.90;;;;;;5072867;28;20220;-76
2020/12/29 06:04:05;;;;;;;6.17;4.47;;;7.90;99.90;;;;;;5071100;28;20296;-76
2020/12/29 06:06:36;;;;;;;7.33;4.73;;;8.00;99.90;;;;;;5073455;28;20723;-76
2020/12/29 06:09:06;;;;;;;7.13;4.70;;;8.00;99.90;;;;;;5076840;28;20557;-76
2020/12/29 06:11:53;;;;;;;6.07;4.30;;;8.00;99.90;;;;;;5073672;28;20312;-75
2020/12/29 06:14:22;;;;;;;6.83;4.43;;;8.00;99.90;;;;;;5074738;28;20216;-76
2020/12/29 06:16:49;;;;;;;5.20;4.10;;;8.10;99.90;;;;;;5075833;28;20209;-75
2020/12/29 06:19:21;;;;;;;7.50;4.67;;;8.10;99.90;;;;;;5074302;28;20271;-76
2020/12/29 06:21:58;;;;;;;7.40;4.83;;;8.10;99.90;;;;;;5074697;28;20303;-76
2020/12/29 06:24:28;;;;;;;5.33;4.10;;;8.00;99.90;;;;;;5074166;28;20296;-75
2020/12/29 06:26:58;;;;;;;5.93;4.73;;;8.10;99.90;;;;;;5074217;28;20609;-76
2020/12/29 06:29:32;;;;;;;6.00;4.43;;;8.00;99.90;;;;;;5076381;28;20216;-74
2020/12/29 06:32:03;;;;;;;5.60;4.33;;;8.10;99.90;;;;;;5073604;28;20205;-75
2020/12/29 06:34:33;;;;;;;6.57;4.23;;;8.10;99.90;;;;;;5073621;28;20210;-76
2020/12/29 06:37:18;;;;;;;4.83;3.90;;;8.10;99.90;;;;;;5074992;28;20690;-75
2020/12/29 06:39:48;;;;;;;5.77;4.07;;;8.10;99.90;;;;;;5072519;28;20217;-75
2020/12/29 06:42:15;;;;;;;5.13;3.93;;;8.10;99.90;;;;;;5071777;28;20300;-75
2020/12/29 06:44:42;;;;;;;5.10;4.03;;;8.10;99.90;;;;;;5073360;28;20209;-74
2020/12/29 06:47:10;;;;;;;5.77;4.27;;;8.10;99.90;;;;;;5072672;28;20219;-74
2020/12/29 06:49:43;;;;;;;6.73;5.27;;;8.10;99.90;;;;;;5073400;28;20205;-74
2020/12/29 06:52:15;;;;;;;6.47;4.50;;;8.10;99.90;;;;;;5070832;28;20265;-75
2020/12/29 06:54:48;;;;;;;6.77;4.17;;;8.10;99.90;;;;;;5073318;28;20194;-74
2020/12/29 06:57:15;;;;;;;5.70;4.30;;;8.10;99.90;;;;;;5076183;28;20205;-76
2020/12/29 06:59:42;;;;;;;5.30;4.10;;;8.10;99.90;;;;;;5070456;28;20217;-75
2020/12/29 07:02:20;;;;;;;6.13;4.50;;;8.10;99.90;;;;;;5074944;28;20207;-75
2020/12/29 07:04:51;;;;;;;5.83;4.33;;;8.00;99.90;;;;;;5073442;28;20266;-76
2020/12/29 07:07:26;;;;;;;5.63;4.30;;;8.00;99.90;;;;;;5070839;28;20252;-75
2020/12/29 07:09:59;;;;;;;6.27;4.50;;;8.00;99.90;;;;;;5071133;28;20762;-75
2020/12/29 07:12:30;;;;;;;7.27;4.53;;;8.00;99.90;;;;;;5068039;28;20767;-76
2020/12/29 07:15:00;;;;;;;7.80;4.70;;;7.90;99.90;;;;;;5068434;28;20202;-76
2020/12/29 07:17:31;;;;;;;6.63;4.67;;;8.00;99.90;;;;;;5073581;28;20220;-76
2020/12/29 07:19:58;;;;;;;8.13;4.70;;;7.90;99.90;;;;;;5075983;28;20221;-76
2020/12/29 07:22:32;;;;;;;6.90;4.87;;;7.90;99.90;;;;;;5071214;28;20212;-75
2020/12/29 07:24:59;;;;;;;6.37;4.87;;;7.90;99.90;;;;;;5066428;28;20205;-76
2020/12/29 07:27:29;;;;;;;5.83;4.37;;;7.90;99.90;;;;;;5068977;28;20290;-74
2020/12/29 07:29:58;;;;;;;5.77;4.20;;;8.00;99.90;;;;;;5069536;28;20209;-75
2020/12/29 07:32:25;;;;;;;6.97;4.90;;;8.00;99.90;;;;;;5071200;28;20209;-76
2020/12/29 07:34:53;;;;;;;5.77;4.27;;;8.00;99.90;;;;;;5072119;28;20258;-74
2020/12/29 07:37:23;;;;;;;8.43;5.07;;;8.00;99.90;;;;;;5070713;28;20213;-77
2020/12/29 07:39:50;;;;;;;8.53;5.00;;;8.00;99.90;;;;;;5073752;28;20583;-76
2020/12/29 07:42:17;;;;;;;6.57;4.90;;;8.00;99.90;;;;;;5069330;28;20201;-77
2020/12/29 07:44:44;;;;;;;7.80;4.67;;;7.90;99.90;;;;;;5072905;28;20232;-77
2020/12/29 07:47:11;;;;;;;6.83;5.00;;;7.90;99.90;;;;;;5078101;28;20198;-78
2020/12/29 07:49:40;;;;;;;8.23;5.33;;;7.90;99.90;;;;;;5073164;28;20202;-77
2020/12/29 07:52:09;;;;;;;9.67;5.60;;;7.80;99.90;;;;;;5075936;28;20266;-78
2020/12/29 07:54:35;;;;;;;8.13;5.17;;;7.80;99.90;;;;;;5074440;28;20661;-77
2020/12/29 07:57:02;;;;;;;8.27;5.63;;;7.80;99.90;;;;;;5072660;28;20209;-75
2020/12/29 07:59:29;;;;;;;6.63;5.10;;;7.80;99.90;;;;;;5071568;28;20221;-74
2020/12/29 08:01:56;;;;;;;8.13;4.97;;;7.80;99.90;;;;;;5073936;28;20267;-75
2020/12/29 08:04:25;;;;;;;7.97;4.67;;;7.80;99.90;;;;;;5074213;28;20255;-78
2020/12/29 08:06:52;;;;;;;10.20;5.77;;;7.80;99.90;;;;;;5076182;28;20252;-79
2020/12/29 08:09:20;;;;;;;8.50;5.30;;;7.70;99.90;;;;;;5070568;28;20228;-77
2020/12/29 08:11:47;;;;;;;8.43;5.30;;;7.70;99.90;;;;;;5075379;28;20631;-76
2020/12/29 08:14:13;;;;;;;7.60;5.43;;;7.70;99.90;;;;;;5068938;28;20298;-77
2020/12/29 08:16:40;;;;;;;8.83;5.47;;;7.60;99.90;;;;;;5073353;28;20240;-76
2020/12/29 08:19:09;;;;;;;7.83;5.23;;;7.60;99.90;;;;;;5072207;28;20222;-79
2020/12/29 08:21:37;;;;;;;8.97;5.70;;;7.50;99.90;;;;;;5076793;28;20236;-78
2020/12/29 08:24:04;;;;;;;9.43;5.77;;;7.50;99.90;;;;;;5073430;28;20205;-77
2020/12/29 08:26:33;;;;;;;8.70;5.20;;;7.50;99.90;;;;;;5072245;28;20327;-77
2020/12/29 08:29:01;;;;;;;9.77;4.77;;;7.50;99.90;;;;;;5071800;28;20295;-76
2020/12/29 08:31:29;;;;;;;7.30;4.80;;;7.50;99.90;;;;;;5077343;28;20308;-78
2020/12/29 08:33:59;;;;;;;7.30;5.20;;;7.50;99.90;;;;;;5073932;28;20757;-77
2020/12/29 08:36:27;;;;;;;7.77;5.43;;;7.50;99.90;;;;;;5069295;28;20284;-76
2020/12/29 08:39:31;;;;;;;7.67;5.60;;;7.40;99.90;;;;;;5067365;28;20236;-75
2020/12/29 08:42:03;;;;;;;9.70;5.27;;;7.40;99.90;;;;;;5070580;28;20693;-74
2020/12/29 08:44:31;;;;;;;9.10;5.73;;;7.40;99.90;;;;;;5074011;28;20243;-77
2020/12/29 08:46:57;;;;;;;6.50;4.57;;;7.40;99.90;;;;;;5069681;28;20205;-79
2020/12/29 08:49:30;;;;;;;9.33;5.00;;;7.40;99.90;;;;;;5067848;28;20265;-77
2020/12/29 08:51:57;;;;;;;8.83;5.40;;;7.40;99.90;;;;;;5072678;28;20567;-76
2020/12/29 08:54:24;;;;;;;11.23;6.20;;;7.40;99.90;;;;;;5074169;28;20295;-76
2020/12/29 08:57:01;;;;;;;8.80;5.53;;;7.40;99.90;;;;;;5078354;28;20284;-80
2020/12/29 08:59:38;;;;;;;8.03;5.60;;;7.40;99.90;;;;;;5070965;28;20309;-78
2020/12/29 09:02:05;;;;;;;9.30;5.37;;;7.30;99.90;;;;;;5070490;28;20209;-75
2020/12/29 09:04:33;;;;;;;8.90;5.03;;;7.30;99.90;;;;;;5074186;28;20237;-74
2020/12/29 09:07:06;;;;;;;6.60;5.50;;;7.30;99.90;;;;;;5071479;28;20691;-76
2020/12/29 09:09:35;;;;;;;8.93;5.20;;;7.30;99.90;;;;;;5075612;28;20317;-74
2020/12/29 09:12:10;;;;;;;7.13;5.03;;;7.30;99.90;;;;;;5073746;28;20267;-76
2020/12/29 09:14:39;;;;;;;7.73;4.90;;;7.30;99.90;;;;;;5075815;28;20236;-78
2020/12/29 09:17:07;;;;;;;6.67;4.50;;;7.30;99.90;;;;;;5080012;28;20224;-77
2020/12/29 09:19:34;;;;;;;6.53;4.77;;;7.30;99.90;;;;;;5073168;28;20226;-78
2020/12/29 09:22:10;;;;;;;5.77;4.40;;;7.30;99.90;;;;;;5074240;28;20232;-77
2020/12/29 09:24:37;;;;;;;6.83;4.60;;;7.30;99.90;;;;;;5075876;28;20247;-76
2020/12/29 09:27:04;;;;;;;5.93;4.43;;;7.30;99.90;;;;;;5070952;28;20205;-77
2020/12/29 09:29:35;;;;;;;5.57;3.77;;;7.30;99.90;;;;;;5073643;28;20200;-76
2020/12/29 09:32:01;;;;;;;5.10;3.87;;;7.30;99.90;;;;;;5070313;28;20288;-77
2020/12/29 09:34:28;;;;;;;7.00;4.07;;;7.30;99.90;;;;;;5068465;28;20239;-75
2020/12/29 09:36:55;;;;;;;6.10;3.97;;;7.40;99.90;;;;;;5065484;28;20205;-75
2020/12/29 09:39:22;;;;;;;4.87;3.40;;;7.40;99.90;;;;;;5077664;28;20220;-77
2020/12/29 09:41:55;;;;;;;4.03;3.03;;;7.40;99.90;;;;;;5071283;28;20254;-76
2020/12/29 09:44:22;;;;;;;5.40;3.77;;;7.40;99.90;;;;;;5066065;28;20202;-73
2020/12/29 09:46:49;;;;;;;5.07;3.20;;;7.50;99.90;;;;;;5067381;28;20207;-72
2020/12/29 09:49:16;;;;;;;4.20;3.10;;;7.50;99.90;;;;;;5069189;28;20209;-75
2020/12/29 09:51:43;;;;;;;3.47;3.07;;;7.50;99.90;;;;;;5073059;28;20216;-74
2020/12/29 09:54:09;;;;;;;4.27;3.27;;;7.60;99.90;;;;;;5073290;28;20223;-74
2020/12/29 09:56:36;;;;;;;5.53;3.60;;;7.60;99.90;;;;;;5076833;28;20258;-74
2020/12/29 09:59:02;;;;;;;4.83;2.83;;;7.60;99.90;;;;;;5074501;28;20203;-73
2020/12/29 10:01:28;;;;;;;2.93;2.43;;;7.70;99.90;;;;;;5073992;28;20229;-77
2020/12/29 10:03:56;;;;;;;3.37;2.83;;;7.70;99.90;;;;;;5076107;28;20214;-72
2020/12/29 10:06:22;;;;;;;3.10;2.47;;;7.70;99.90;;;;;;5072016;28;20205;-75
2020/12/29 10:08:48;;;;;;;3.50;2.77;;;7.70;99.90;;;;;;5072634;28;20229;-74
2020/12/29 10:11:15;;;;;;;3.93;2.83;;;7.70;99.90;;;;;;5069315;28;20320;-74
2020/12/29 10:13:41;;;;;;;3.50;2.53;;;7.70;99.90;;;;;;5073125;28;20232;-78
2020/12/29 10:16:08;;;;;;;3.57;2.83;;;7.70;99.90;;;;;;5076205;28;20682;-73
2020/12/29 10:18:34;;;;;;;3.20;2.43;;;7.60;99.90;;;;;;5073475;28;20738;-73
2020/12/29 10:21:01;;;;;;;3.80;2.90;;;7.60;99.90;;;;;;5075069;28;20289;-73
2020/12/29 10:23:28;;;;;;;5.30;2.83;;;7.60;99.90;;;;;;5074093;28;20741;-74
2020/12/29 10:25:54;;;;;;;3.37;2.67;;;7.60;99.90;;;;;;5076401;28;20208;-74
2020/12/29 10:28:20;;;;;;;2.90;2.47;;;7.50;99.90;;;;;;5073252;28;20287;-75
2020/12/29 10:30:48;;;;;;;3.70;2.50;;;7.50;99.90;;;;;;5076122;28;20757;-74
2020/12/29 10:33:14;;;;;;;4.13;2.37;;;7.50;99.90;;;;;;5072376;28;20923;-74
2020/12/29 10:35:41;;;;;;;3.60;2.37;;;7.40;99.90;;;;;;5076257;28;20228;-73
2020/12/29 10:38:08;;;;;;;3.70;2.50;;;7.40;99.90;;;;;;5076182;28;20251;-73
2020/12/29 10:40:35;;;;;;;3.43;2.13;;;7.40;99.90;;;;;;5070772;28;20217;-73
2020/12/29 10:43:01;;;;;;;4.03;2.50;;;7.30;99.90;;;;;;5076336;28;20287;-72
2020/12/29 10:45:28;;;;;;;2.83;2.30;;;7.30;99.90;;;;;;5075425;28;20215;-73
2020/12/29 10:47:54;;;;;;;3.93;2.57;;;7.30;99.90;;;;;;5075501;28;20265;-72
2020/12/29 10:50:20;;;;;;;6.00;2.60;;;7.20;99.90;;;;;;5071898;28;20292;-74
2020/12/29 10:52:47;;;;;;;3.47;2.67;;;7.10;99.90;;;;;;5074508;28;20660;-74
2020/12/29 10:55:14;;;;;;;3.87;2.63;;;7.10;99.90;;;;;;5074776;28;20653;-73
2020/12/29 10:57:41;;;;;;;3.33;2.50;;;7.10;99.90;;;;;;5075393;28;20248;-75
2020/12/29 11:00:07;;;;;;;4.40;2.40;;;6.90;99.90;;;;;;5077938;28;20220;-76
2020/12/29 11:02:33;;;;;;;4.57;2.30;;;6.90;99.90;;;;;;5072197;28;20272;-76
2020/12/29 11:05:00;;;;;;;3.77;2.07;;;6.80;99.90;;;;;;5081835;28;20241;-74
2020/12/29 11:07:26;;;;;;;4.80;2.50;;;6.60;99.90;;;;;;5074134;28;20697;-73
2020/12/29 11:09:52;;;;;;;3.67;2.77;;;6.50;99.90;;;;;;5070346;28;20229;-74
2020/12/29 11:12:19;;;;;;;2.90;2.50;;;6.50;99.90;;;;;;5084624;28;20788;-74
2020/12/29 11:14:46;;;;;;;5.10;2.73;;;6.40;99.90;;;;;;5076178;28;20236;-74
2020/12/29 11:17:12;;;;;;;3.37;2.47;;;6.30;99.90;;;;;;5079929;28;20217;-76
2020/12/29 11:19:39;;;;;;;3.03;2.30;;;6.20;99.90;;;;;;5069061;28;20333;-74
2020/12/29 11:22:05;;;;;;;4.07;2.57;;;6.10;99.90;;;;;;5074087;28;20291;-74
2020/12/29 11:24:31;;;;;;;3.57;2.57;;;6.00;99.90;;;;;;5069203;28;20202;-76
2020/12/29 11:26:58;;;;;;;3.97;3.13;;;6.00;99.90;;;;;;5064790;28;20205;-74
2020/12/29 11:29:25;;;;;;;3.47;2.40;;;6.00;99.90;;;;;;5074413;28;20631;-74
2020/12/29 11:31:51;;;;;;;4.10;2.80;;;5.90;99.90;;;;;;5071842;28;20308;-74
2020/12/29 11:34:18;;;;;;;6.17;3.10;;;5.90;99.90;;;;;;5071959;28;20252;-74
2020/12/29 11:36:44;;;;;;;4.50;3.33;;;5.80;99.90;;;;;;5074615;28;20209;-75
2020/12/29 11:39:11;;;;;;;5.40;4.07;;;5.90;99.90;;;;;;5073274;28;20651;-74
2020/12/29 11:41:37;;;;;;;7.03;4.43;;;5.80;99.90;;;;;;5074691;28;20293;-74
2020/12/29 11:44:03;;;;;;;6.17;4.40;;;5.70;99.90;;;;;;5076418;28;20299;-75
2020/12/29 11:46:31;;;;;;;5.73;4.50;;;5.70;99.90;;;;;;5075240;28;20242;-75
2020/12/29 11:48:57;;;;;;;6.77;4.40;;;5.70;99.90;;;;;;5075015;28;20235;-75
2020/12/29 11:51:23;;;;;;;6.80;4.60;;;5.70;99.90;;;;;;5072399;28;20359;-76
2020/12/29 11:53:49;;;;;;;7.57;4.97;;;5.70;99.90;;;;;;5078390;28;20286;-76
2020/12/29 11:56:16;;;;;;;10.10;5.27;;;5.70;99.90;;;;;;5071083;28;20239;-75
2020/12/29 11:58:43;;;;;;;9.23;5.80;;;5.70;99.90;;;;;;5078847;28;20268;-74
2020/12/29 12:01:09;;;;;;;7.80;5.60;;;5.70;99.90;;;;;;5076762;28;20233;-76
2020/12/29 12:03:36;;;;;;;9.47;5.97;;;5.80;99.90;;;;;;5074383;28;20220;-77
2020/12/29 12:06:03;;;;;;;10.43;6.10;;;5.80;99.90;;;;;;5073933;28;20673;-77
2020/12/29 12:08:29;;;;;;;9.63;6.13;;;5.80;99.90;;;;;;5071965;28;20240;-75
2020/12/29 12:10:57;;;;;;;8.03;6.20;;;5.80;99.90;;;;;;5077558;28;20219;-76
2020/12/29 12:13:23;;;;;;;9.07;6.67;;;5.90;99.90;;;;;;5070618;28;20295;-77
2020/12/29 12:15:50;;;;;;;8.87;6.13;;;5.90;99.90;;;;;;5073798;28;20209;-75
2020/12/29 12:18:19;;;;;;;8.63;6.50;;;5.90;99.90;;;;;;5073352;28;20759;-74
2020/12/29 12:20:49;;;;;;;10.57;7.30;;;5.90;99.90;;;;;;5071120;28;20261;-74
2020/12/29 12:23:15;;;;;;;10.40;7.03;;;6.00;99.90;;;;;;5072426;28;20582;-74
2020/12/29 12:25:41;;;;;;;10.07;7.10;;;6.00;99.90;;;;;;5069256;28;20300;-74
2020/12/29 12:28:08;;;;;;;9.97;7.40;;;6.10;99.90;;;;;;5068597;28;20210;-75
2020/12/29 12:30:34;;;;;;;11.13;6.70;;;6.10;99.90;;;;;;5074018;28;20198;-74
2020/12/29 12:33:00;;;;;;;12.13;7.60;;;6.20;99.90;;;;;;5073535;28;20216;-75
2020/12/29 12:35:27;;;;;;;13.20;8.03;;;6.20;99.90;;;;;;5083263;28;20208;-74
2020/12/29 12:37:54;;;;;;;15.20;9.23;;;6.20;99.90;;;;;;5067920;28;20209;-74
2020/12/29 12:40:20;;;;;;;14.83;9.13;;;6.20;99.90;;;;;;5074376;28;20711;-76
2020/12/29 12:42:47;;;;;;;9.33;7.20;;;6.30;99.90;;;;;;5076615;28;20615;-76
2020/12/29 12:45:13;;;;;;;10.83;7.37;;;6.30;99.90;;;;;;5079594;28;20262;-74
2020/12/29 12:47:40;;;;;;;9.63;7.07;;;6.30;99.90;;;;;;5069923;28;20299;-75
2020/12/29 12:50:06;;;;;;;12.07;8.07;;;6.30;99.90;;;;;;5070407;28;20206;-74
2020/12/29 12:52:33;;;;;;;11.10;7.80;;;6.40;99.90;;;;;;5071084;28;20275;-75
2020/12/29 12:55:00;;;;;;;11.37;7.83;;;6.40;99.90;;;;;;5072961;28;20287;-76
2020/12/29 12:57:26;;;;;;;11.30;7.37;;;6.40;99.90;;;;;;5071788;28;20207;-75